sensor_id;sensor_type;location;lat;lon;timestamp;temperature;humidity
20929;DHT22;21895;47.072;15.132;2022-08-14T00:01:58;15.20;99.90
20929;DHT22;21895;47.072;15.132;2022-08-14T00:04:32;15.20;99.90
20929;DHT22;21895;47.072;15.132;2022-08-14T00:07:10;15.10;99.90
20929;DHT22;21895;47.072;15.132;2022-08-14T00:09:44;15.10;99.90
20929;DHT22;21895;47.072;15.132;2022-08-14T00:13:20;15.10;99.90
20929;DHT22;21895;47.072;15.132;2022-08-14T00:15:50;15.00;99.90
20929;DHT22;21895;47.072;15.132;2022-08-14T00:18:20;15.00;99.90
20929;DHT22;21895;47.072;15.132;2022-08-14T00:21:31;14.90;99.90
20929;DHT22;21895;47.072;15.132;2022-08-14T00:23:58;14.80;99.90
20929;DHT22;21895;47.072;15.132;2022-08-14T00:26:28;14.70;99.90
20929;DHT22;21895;47.072;15.132;2022-08-14T00:28:54;14.70;99.90
20929;DHT22;21895;47.072;15.132;2022-08-14T00:31:21;14.60;99.90
20929;DHT22;21895;47.072;15.132;2022-08-14T00:34:11;14.60;99.90
20929;DHT22;21895;47.072;15.132;2022-08-14T00:37:12;14.60;99.90
20929;DHT22;21895;47.072;15.132;2022-08-14T00:39:39;14.40;99.90
20929;DHT22;21895;47.072;15.132;2022-08-14T00:42:08;14.40;99.90
20929;DHT22;21895;47.072;15.132;2022-08-14T00:44:47;14.40;99.90
20929;DHT22;21895;47.072;15.132;2022-08-14T00:47:15;14.50;99.90
20929;DHT22;21895;47.072;15.132;2022-08-14T00:49:44;14.50;99.90
20929;DHT22;21895;47.072;15.132;2022-08-14T00:52:13;14.40;99.90
20929;DHT22;21895;47.072;15.132;2022-08-14T00:54:46;14.40;99.90
20929;DHT22;21895;47.072;15.132;2022-08-14T00:57:26;14.50;99.90
20929;DHT22;21895;47.072;15.132;2022-08-14T00:59:58;14.40;99.90
20929;DHT22;21895;47.072;15.132;2022-08-14T01:02:26;14.40;99.90
20929;DHT22;21895;47.072;15.132;2022-08-14T01:04:58;14.30;99.90
20929;DHT22;21895;47.072;15.132;2022-08-14T01:07:32;14.30;99.90
20929;DHT22;21895;47.072;15.132;2022-08-14T01:10:19;14.20;99.90
20929;DHT22;21895;47.072;15.132;2022-08-14T01:12:48;14.10;99.90
20929;DHT22;21895;47.072;15.132;2022-08-14T01:15:17;14.20;99.90
20929;DHT22;21895;47.072;15.132;2022-08-14T01:17:57;14.20;99.90
20929;DHT22;21895;47.072;15.132;2022-08-14T01:20:42;14.30;99.90
20929;DHT22;21895;47.072;15.132;2022-08-14T01:23:27;14.20;99.90
20929;DHT22;21895;47.072;15.132;2022-08-14T01:26:16;14.30;99.90
20929;DHT22;21895;47.072;15.132;2022-08-14T01:29:03;14.20;99.90
20929;DHT22;21895;47.072;15.132;2022-08-14T01:31:34;14.20;99.90
20929;DHT22;21895;47.072;15.132;2022-08-14T01:34:16;14.20;99.90
20929;DHT22;21895;47.072;15.132;2022-08-14T01:38:27;14.10;99.90
20929;DHT22;21895;47.072;15.132;2022-08-14T01:41:09;14.10;99.90
20929;DHT22;21895;47.072;15.132;2022-08-14T01:43:58;14.10;99.90
20929;DHT22;21895;47.072;15.132;2022-08-14T01:46:31;14.00;99.90
20929;DHT22;21895;47.072;15.132;2022-08-14T01:49:05;14.00;99.90
20929;DHT22;21895;47.072;15.132;2022-08-14T01:51:34;13.90;99.90
20929;DHT22;21895;47.072;15.132;2022-08-14T01:54:12;13.90;99.90
20929;DHT22;21895;47.072;15.132;2022-08-14T01:56:40;14.00;99.90
20929;DHT22;21895;47.072;15.132;2022-08-14T02:01:02;14.10;99.90
20929;DHT22;21895;47.072;15.132;2022-08-14T02:03:39;14.00;99.90
20929;DHT22;21895;47.072;15.132;2022-08-14T02:06:09;13.90;99.90
20929;DHT22;21895;47.072;15.132;2022-08-14T02:08:59;13.80;99.90
20929;DHT22;21895;47.072;15.132;2022-08-14T02:11:35;13.80;99.90
20929;DHT22;21895;47.072;15.132;2022-08-14T02:14:07;13.90;99.90
20929;DHT22;21895;47.072;15.132;2022-08-14T02:16:42;13.90;99.90
20929;DHT22;21895;47.072;15.132;2022-08-14T02:19:24;13.90;99.90
20929;DHT22;21895;47.072;15.132;2022-08-14T02:21:55;13.80;99.90
20929;DHT22;21895;47.072;15.132;2022-08-14T02:24:30;13.70;99.90
20929;DHT22;21895;47.072;15.132;2022-08-14T02:27:07;13.70;99.90
20929;DHT22;21895;47.072;15.132;2022-08-14T02:31:22;13.70;99.90
20929;DHT22;21895;47.072;15.132;2022-08-14T02:34:11;13.60;99.90
20929;DHT22;21895;47.072;15.132;2022-08-14T02:36:55;13.50;99.90
20929;DHT22;21895;47.072;15.132;2022-08-14T02:39:34;13.50;99.90
20929;DHT22;21895;47.072;15.132;2022-08-14T02:42:05;13.40;99.90
20929;DHT22;21895;47.072;15.132;2022-08-14T02:44:41;13.50;99.90
20929;DHT22;21895;47.072;15.132;2022-08-14T02:47:15;13.40;99.90
20929;DHT22;21895;47.072;15.132;2022-08-14T02:49:46;13.50;99.90
20929;DHT22;21895;47.072;15.132;2022-08-14T02:52:23;13.60;99.90
20929;DHT22;21895;47.072;15.132;2022-08-14T02:55:23;13.60;99.90
20929;DHT22;21895;47.072;15.132;2022-08-14T02:57:50;13.50;99.90
20929;DHT22;21895;47.072;15.132;2022-08-14T03:00:24;13.40;99.90
20929;DHT22;21895;47.072;15.132;2022-08-14T03:02:53;13.50;99.90
20929;DHT22;21895;47.072;15.132;2022-08-14T03:05:25;13.50;99.90
20929;DHT22;21895;47.072;15.132;2022-08-14T03:08:12;13.40;99.90
20929;DHT22;21895;47.072;15.132;2022-08-14T03:10:44;13.40;99.90
20929;DHT22;21895;47.072;15.132;2022-08-14T03:13:17;13.40;99.90
20929;DHT22;21895;47.072;15.132;2022-08-14T03:15:47;13.30;99.90
20929;DHT22;21895;47.072;15.132;2022-08-14T03:18:25;13.40;99.90
20929;DHT22;21895;47.072;15.132;2022-08-14T03:20:59;13.20;99.90
20929;DHT22;21895;47.072;15.132;2022-08-14T03:23:28;13.20;99.90
20929;DHT22;21895;47.072;15.132;2022-08-14T03:26:07;13.20;99.90
20929;DHT22;21895;47.072;15.132;2022-08-14T03:28:46;13.30;99.90
20929;DHT22;21895;47.072;15.132;2022-08-14T03:31:17;13.40;99.90
20929;DHT22;21895;47.072;15.132;2022-08-14T03:33:48;13.40;99.90
20929;DHT22;21895;47.072;15.132;2022-08-14T03:36:19;13.40;99.90
20929;DHT22;21895;47.072;15.132;2022-08-14T03:40:49;13.40;99.90
20929;DHT22;21895;47.072;15.132;2022-08-14T03:43:16;13.20;99.90
20929;DHT22;21895;47.072;15.132;2022-08-14T03:45:43;13.20;99.90
20929;DHT22;21895;47.072;15.132;2022-08-14T03:48:16;13.40;99.90
20929;DHT22;21895;47.072;15.132;2022-08-14T03:50:57;13.50;99.90
20929;DHT22;21895;47.072;15.132;2022-08-14T03:53:24;13.60;99.90
20929;DHT22;21895;47.072;15.132;2022-08-14T03:55:51;13.50;99.90
20929;DHT22;21895;47.072;15.132;2022-08-14T03:58:21;13.40;99.90
20929;DHT22;21895;47.072;15.132;2022-08-14T04:01:02;13.50;99.90
20929;DHT22;21895;47.072;15.132;2022-08-14T04:03:32;13.60;99.90
20929;DHT22;21895;47.072;15.132;2022-08-14T04:06:00;13.50;99.90
20929;DHT22;21895;47.072;15.132;2022-08-14T04:08:26;13.50;99.90
20929;DHT22;21895;47.072;15.132;2022-08-14T04:11:00;13.40;99.90
20929;DHT22;21895;47.072;15.132;2022-08-14T04:13:37;13.40;99.90
20929;DHT22;21895;47.072;15.132;2022-08-14T04:16:17;13.40;99.90
20929;DHT22;21895;47.072;15.132;2022-08-14T04:18:53;13.40;99.90
20929;DHT22;21895;47.072;15.132;2022-08-14T04:21:24;13.30;99.90
20929;DHT22;21895;47.072;15.132;2022-08-14T04:23:56;13.40;99.90
20929;DHT22;21895;47.072;15.132;2022-08-14T04:26:26;13.30;99.90
20929;DHT22;21895;47.072;15.132;2022-08-14T04:29:11;13.40;99.90
20929;DHT22;21895;47.072;15.132;2022-08-14T04:31:42;13.50;99.90
20929;DHT22;21895;47.072;15.132;2022-08-14T04:35:37;13.50;99.90
20929;DHT22;21895;47.072;15.132;2022-08-14T04:38:23;13.50;99.90
20929;DHT22;21895;47.072;15.132;2022-08-14T04:41:12;13.70;99.90
20929;DHT22;21895;47.072;15.132;2022-08-14T04:43:58;13.70;99.90
20929;DHT22;21895;47.072;15.132;2022-08-14T04:46:26;13.80;99.90
20929;DHT22;21895;47.072;15.132;2022-08-14T04:49:23;13.80;99.90
20929;DHT22;21895;47.072;15.132;2022-08-14T04:51:49;13.80;99.90
20929;DHT22;21895;47.072;15.132;2022-08-14T04:54:23;14.00;99.90
20929;DHT22;21895;47.072;15.132;2022-08-14T04:56:54;14.00;99.90
20929;DHT22;21895;47.072;15.132;2022-08-14T04:59:22;14.10;99.90
20929;DHT22;21895;47.072;15.132;2022-08-14T05:01:49;14.40;99.90
20929;DHT22;21895;47.072;15.132;2022-08-14T05:04:22;14.40;99.90
20929;DHT22;21895;47.072;15.132;2022-08-14T05:06:51;14.40;99.90
20929;DHT22;21895;47.072;15.132;2022-08-14T05:09:22;14.40;99.90
20929;DHT22;21895;47.072;15.132;2022-08-14T05:11:49;14.50;99.90
20929;DHT22;21895;47.072;15.132;2022-08-14T05:14:18;14.60;99.90
20929;DHT22;21895;47.072;15.132;2022-08-14T05:17:18;14.70;99.90
20929;DHT22;21895;47.072;15.132;2022-08-14T05:19:58;14.90;99.90
20929;DHT22;21895;47.072;15.132;2022-08-14T05:24:26;15.00;99.90
20929;DHT22;21895;47.072;15.132;2022-08-14T05:26:54;15.20;99.90
20929;DHT22;21895;47.072;15.132;2022-08-14T05:29:21;15.40;99.90
20929;DHT22;21895;47.072;15.132;2022-08-14T05:31:47;15.70;99.90
20929;DHT22;21895;47.072;15.132;2022-08-14T05:34:16;15.90;99.90
20929;DHT22;21895;47.072;15.132;2022-08-14T05:36:44;16.20;99.90
20929;DHT22;21895;47.072;15.132;2022-08-14T05:39:28;16.60;99.90
20929;DHT22;21895;47.072;15.132;2022-08-14T05:41:56;16.90;99.90
20929;DHT22;21895;47.072;15.132;2022-08-14T05:44:23;17.20;99.90
20929;DHT22;21895;47.072;15.132;2022-08-14T05:46:56;17.30;99.90
20929;DHT22;21895;47.072;15.132;2022-08-14T05:49:23;17.50;99.90
20929;DHT22;21895;47.072;15.132;2022-08-14T05:51:58;17.90;99.90
20929;DHT22;21895;47.072;15.132;2022-08-14T05:54:28;18.00;99.90
20929;DHT22;21895;47.072;15.132;2022-08-14T05:57:02;18.00;99.90
20929;DHT22;21895;47.072;15.132;2022-08-14T06:02:16;18.20;99.90
20929;DHT22;21895;47.072;15.132;2022-08-14T06:04:47;18.30;99.90
20929;DHT22;21895;47.072;15.132;2022-08-14T06:07:15;18.50;99.90
20929;DHT22;21895;47.072;15.132;2022-08-14T06:09:42;18.70;99.90
20929;DHT22;21895;47.072;15.132;2022-08-14T06:12:18;18.80;99.90
20929;DHT22;21895;47.072;15.132;2022-08-14T06:15:25;19.10;99.90
20929;DHT22;21895;47.072;15.132;2022-08-14T06:17:56;19.20;99.90
20929;DHT22;21895;47.072;15.132;2022-08-14T06:20:25;19.40;99.90
20929;DHT22;21895;47.072;15.132;2022-08-14T06:22:54;19.50;99.90
20929;DHT22;21895;47.072;15.132;2022-08-14T06:25:22;19.60;99.90
20929;DHT22;21895;47.072;15.132;2022-08-14T06:27:50;19.70;99.90
20929;DHT22;21895;47.072;15.132;2022-08-14T06:30:20;20.00;99.90
20929;DHT22;21895;47.072;15.132;2022-08-14T06:32:49;20.10;99.90
20929;DHT22;21895;47.072;15.132;2022-08-14T06:35:19;20.30;99.90
20929;DHT22;21895;47.072;15.132;2022-08-14T06:37:54;20.50;99.90
20929;DHT22;21895;47.072;15.132;2022-08-14T06:40:28;20.40;99.90
20929;DHT22;21895;47.072;15.132;2022-08-14T06:43:08;20.80;99.90
20929;DHT22;21895;47.072;15.132;2022-08-14T06:45:42;21.00;99.90
20929;DHT22;21895;47.072;15.132;2022-08-14T06:48:23;21.20;99.90
20929;DHT22;21895;47.072;15.132;2022-08-14T06:50:52;21.40;99.90
20929;DHT22;21895;47.072;15.132;2022-08-14T06:53:20;21.70;99.90
20929;DHT22;21895;47.072;15.132;2022-08-14T06:55:53;21.80;99.90
20929;DHT22;21895;47.072;15.132;2022-08-14T06:58:26;21.90;99.90
20929;DHT22;21895;47.072;15.132;2022-08-14T07:00:57;22.00;99.90
20929;DHT22;21895;47.072;15.132;2022-08-14T07:03:50;22.20;99.90
20929;DHT22;21895;47.072;15.132;2022-08-14T07:06:53;22.10;99.90
20929;DHT22;21895;47.072;15.132;2022-08-14T07:09:26;22.10;99.90
20929;DHT22;21895;47.072;15.132;2022-08-14T07:11:56;22.20;99.90
20929;DHT22;21895;47.072;15.132;2022-08-14T07:14:23;22.40;99.90
20929;DHT22;21895;47.072;15.132;2022-08-14T07:16:50;22.60;99.80
20929;DHT22;21895;47.072;15.132;2022-08-14T07:19:17;22.70;99.80
20929;DHT22;21895;47.072;15.132;2022-08-14T07:21:46;22.90;99.60
20929;DHT22;21895;47.072;15.132;2022-08-14T07:24:13;23.20;98.60
20929;DHT22;21895;47.072;15.132;2022-08-14T07:26:52;23.20;98.60
20929;DHT22;21895;47.072;15.132;2022-08-14T07:29:19;23.30;98.20
20929;DHT22;21895;47.072;15.132;2022-08-14T07:31:52;23.40;98.30
20929;DHT22;21895;47.072;15.132;2022-08-14T07:34:19;23.50;98.70
20929;DHT22;21895;47.072;15.132;2022-08-14T07:37:03;23.60;99.20
20929;DHT22;21895;47.072;15.132;2022-08-14T07:39:30;23.80;99.00
20929;DHT22;21895;47.072;15.132;2022-08-14T07:42:01;24.10;98.30
20929;DHT22;21895;47.072;15.132;2022-08-14T07:44:27;24.30;97.60
20929;DHT22;21895;47.072;15.132;2022-08-14T07:47:11;24.30;97.00
20929;DHT22;21895;47.072;15.132;2022-08-14T07:49:40;24.60;96.80
20929;DHT22;21895;47.072;15.132;2022-08-14T07:52:09;24.80;95.90
20929;DHT22;21895;47.072;15.132;2022-08-14T07:54:35;24.90;95.20
20929;DHT22;21895;47.072;15.132;2022-08-14T07:57:02;24.90;95.70
20929;DHT22;21895;47.072;15.132;2022-08-14T07:59:38;25.10;94.50
20929;DHT22;21895;47.072;15.132;2022-08-14T08:02:11;25.40;93.80
20929;DHT22;21895;47.072;15.132;2022-08-14T08:04:48;25.60;93.00
20929;DHT22;21895;47.072;15.132;2022-08-14T08:07:23;25.80;93.30
20929;DHT22;21895;47.072;15.132;2022-08-14T08:09:57;25.90;92.20
20929;DHT22;21895;47.072;15.132;2022-08-14T08:12:27;26.10;93.60
20929;DHT22;21895;47.072;15.132;2022-08-14T08:14:59;26.10;91.80
20929;DHT22;21895;47.072;15.132;2022-08-14T08:17:34;26.20;91.80
20929;DHT22;21895;47.072;15.132;2022-08-14T08:20:16;26.20;92.50
20929;DHT22;21895;47.072;15.132;2022-08-14T08:22:47;26.30;92.30
20929;DHT22;21895;47.072;15.132;2022-08-14T08:25:26;26.40;92.30
20929;DHT22;21895;47.072;15.132;2022-08-14T08:28:22;26.30;92.60
20929;DHT22;21895;47.072;15.132;2022-08-14T08:30:56;26.40;92.30
20929;DHT22;21895;47.072;15.132;2022-08-14T08:33:29;26.40;92.50
20929;DHT22;21895;47.072;15.132;2022-08-14T08:35:59;26.70;91.90
20929;DHT22;21895;47.072;15.132;2022-08-14T08:38:30;26.70;92.50
20929;DHT22;21895;47.072;15.132;2022-08-14T08:41:48;26.70;91.80
20929;DHT22;21895;47.072;15.132;2022-08-14T08:44:20;26.80;91.50
20929;DHT22;21895;47.072;15.132;2022-08-14T08:46:59;26.90;91.50
20929;DHT22;21895;47.072;15.132;2022-08-14T08:49:41;26.80;91.30
20929;DHT22;21895;47.072;15.132;2022-08-14T08:52:15;26.70;91.30
20929;DHT22;21895;47.072;15.132;2022-08-14T08:54:56;26.80;90.80
20929;DHT22;21895;47.072;15.132;2022-08-14T08:57:24;26.90;90.10
20929;DHT22;21895;47.072;15.132;2022-08-14T08:59:51;26.70;88.80
20929;DHT22;21895;47.072;15.132;2022-08-14T09:02:24;26.70;90.00
20929;DHT22;21895;47.072;15.132;2022-08-14T09:05:01;26.90;91.00
20929;DHT22;21895;47.072;15.132;2022-08-14T09:07:28;27.00;90.40
20929;DHT22;21895;47.072;15.132;2022-08-14T09:09:57;26.90;88.50
20929;DHT22;21895;47.072;15.132;2022-08-14T09:12:29;26.70;90.40
20929;DHT22;21895;47.072;15.132;2022-08-14T09:15:04;26.80;89.90
20929;DHT22;21895;47.072;15.132;2022-08-14T09:17:42;26.90;89.70
20929;DHT22;21895;47.072;15.132;2022-08-14T09:20:10;26.90;90.00
20929;DHT22;21895;47.072;15.132;2022-08-14T09:22:39;26.90;90.40
20929;DHT22;21895;47.072;15.132;2022-08-14T09:25:14;27.10;88.30
20929;DHT22;21895;47.072;15.132;2022-08-14T09:27:45;27.10;89.50
20929;DHT22;21895;47.072;15.132;2022-08-14T09:30:11;27.20;90.00
20929;DHT22;21895;47.072;15.132;2022-08-14T09:33:14;27.40;87.30
20929;DHT22;21895;47.072;15.132;2022-08-14T09:41:17;27.60;87.00
20929;DHT22;21895;47.072;15.132;2022-08-14T09:45:19;27.30;87.50
20929;DHT22;21895;47.072;15.132;2022-08-14T09:48:20;27.50;86.40
20929;DHT22;21895;47.072;15.132;2022-08-14T09:50:57;27.50;84.90
20929;DHT22;21895;47.072;15.132;2022-08-14T09:53:42;27.40;85.70
20929;DHT22;21895;47.072;15.132;2022-08-14T09:56:49;27.50;84.90
20929;DHT22;21895;47.072;15.132;2022-08-14T09:59:25;27.50;86.00
20929;DHT22;21895;47.072;15.132;2022-08-14T10:01:57;27.50;86.60
20929;DHT22;21895;47.072;15.132;2022-08-14T10:04:25;27.60;85.00
20929;DHT22;21895;47.072;15.132;2022-08-14T10:07:04;27.60;85.00
20929;DHT22;21895;47.072;15.132;2022-08-14T10:09:33;27.50;86.10
20929;DHT22;21895;47.072;15.132;2022-08-14T10:12:44;27.60;85.10
20929;DHT22;21895;47.072;15.132;2022-08-14T10:15:21;27.60;86.20
20929;DHT22;21895;47.072;15.132;2022-08-14T10:20:37;27.70;82.40
20929;DHT22;21895;47.072;15.132;2022-08-14T10:23:20;27.70;84.70
20929;DHT22;21895;47.072;15.132;2022-08-14T10:26:13;27.80;85.80
20929;DHT22;21895;47.072;15.132;2022-08-14T10:29:03;27.70;84.20
20929;DHT22;21895;47.072;15.132;2022-08-14T10:31:56;27.90;83.70
20929;DHT22;21895;47.072;15.132;2022-08-14T10:34:30;28.00;83.90
20929;DHT22;21895;47.072;15.132;2022-08-14T10:37:13;28.10;82.50
20929;DHT22;21895;47.072;15.132;2022-08-14T10:39:58;28.10;83.00
20929;DHT22;21895;47.072;15.132;2022-08-14T10:43:14;28.20;81.90
20929;DHT22;21895;47.072;15.132;2022-08-14T10:45:55;27.90;82.30
20929;DHT22;21895;47.072;15.132;2022-08-14T10:48:58;28.00;84.50
20929;DHT22;21895;47.072;15.132;2022-08-14T10:51:29;28.00;80.50
20929;DHT22;21895;47.072;15.132;2022-08-14T10:54:05;28.00;81.00
20929;DHT22;21895;47.072;15.132;2022-08-14T10:58:07;28.10;81.30
20929;DHT22;21895;47.072;15.132;2022-08-14T11:00:41;28.20;80.00
20929;DHT22;21895;47.072;15.132;2022-08-14T11:03:23;28.20;78.90
20929;DHT22;21895;47.072;15.132;2022-08-14T11:06:11;28.20;79.30
20929;DHT22;21895;47.072;15.132;2022-08-14T11:08:43;28.30;81.30
20929;DHT22;21895;47.072;15.132;2022-08-14T11:11:11;28.40;80.00
20929;DHT22;21895;47.072;15.132;2022-08-14T11:13:40;28.20;76.90
20929;DHT22;21895;47.072;15.132;2022-08-14T11:16:13;28.20;79.10
20929;DHT22;21895;47.072;15.132;2022-08-14T11:18:46;28.40;80.70
20929;DHT22;21895;47.072;15.132;2022-08-14T11:21:21;28.50;80.60
20929;DHT22;21895;47.072;15.132;2022-08-14T11:23:48;28.50;78.70
20929;DHT22;21895;47.072;15.132;2022-08-14T11:26:20;28.60;79.20
20929;DHT22;21895;47.072;15.132;2022-08-14T11:28:50;28.50;78.50
20929;DHT22;21895;47.072;15.132;2022-08-14T11:31:21;28.50;78.20
20929;DHT22;21895;47.072;15.132;2022-08-14T11:33:50;28.60;77.40
20929;DHT22;21895;47.072;15.132;2022-08-14T11:36:23;28.30;78.50
20929;DHT22;21895;47.072;15.132;2022-08-14T11:39:44;28.10;78.70
20929;DHT22;21895;47.072;15.132;2022-08-14T11:42:22;27.90;80.30
20929;DHT22;21895;47.072;15.132;2022-08-14T11:45:29;28.00;77.70
20929;DHT22;21895;47.072;15.132;2022-08-14T11:49:54;28.20;78.90
20929;DHT22;21895;47.072;15.132;2022-08-14T11:52:21;28.00;81.20
20929;DHT22;21895;47.072;15.132;2022-08-14T11:54:59;27.90;81.80
20929;DHT22;21895;47.072;15.132;2022-08-14T11:57:26;27.80;81.80
20929;DHT22;21895;47.072;15.132;2022-08-14T12:00:07;27.70;82.00
20929;DHT22;21895;47.072;15.132;2022-08-14T12:02:58;27.70;81.60
20929;DHT22;21895;47.072;15.132;2022-08-14T12:05:35;27.90;79.60
20929;DHT22;21895;47.072;15.132;2022-08-14T12:08:05;28.20;80.60
20929;DHT22;21895;47.072;15.132;2022-08-14T12:10:40;28.70;80.60
20929;DHT22;21895;47.072;15.132;2022-08-14T12:13:17;28.90;81.20
20929;DHT22;21895;47.072;15.132;2022-08-14T12:15:59;28.90;77.70
20929;DHT22;21895;47.072;15.132;2022-08-14T12:18:42;28.90;79.50
20929;DHT22;21895;47.072;15.132;2022-08-14T12:21:21;29.00;80.30
20929;DHT22;21895;47.072;15.132;2022-08-14T12:24:03;29.00;78.30
20929;DHT22;21895;47.072;15.132;2022-08-14T12:26:34;29.00;77.70
20929;DHT22;21895;47.072;15.132;2022-08-14T12:29:12;29.10;79.50
20929;DHT22;21895;47.072;15.132;2022-08-14T12:31:42;28.90;77.60
20929;DHT22;21895;47.072;15.132;2022-08-14T12:34:13;28.90;78.90
20929;DHT22;21895;47.072;15.132;2022-08-14T12:36:48;29.00;78.00
20929;DHT22;21895;47.072;15.132;2022-08-14T12:39:21;29.00;79.10
20929;DHT22;21895;47.072;15.132;2022-08-14T12:41:51;29.00;79.10
20929;DHT22;21895;47.072;15.132;2022-08-14T12:44:37;29.00;77.90
20929;DHT22;21895;47.072;15.132;2022-08-14T12:47:12;28.80;76.00
20929;DHT22;21895;47.072;15.132;2022-08-14T12:49:53;28.80;77.70
20929;DHT22;21895;47.072;15.132;2022-08-14T12:52:32;28.80;77.40
20929;DHT22;21895;47.072;15.132;2022-08-14T12:55:19;28.70;77.70
20929;DHT22;21895;47.072;15.132;2022-08-14T12:57:51;28.50;78.20
20929;DHT22;21895;47.072;15.132;2022-08-14T13:00:21;28.60;80.70
20929;DHT22;21895;47.072;15.132;2022-08-14T13:02:53;28.60;77.00
20929;DHT22;21895;47.072;15.132;2022-08-14T13:05:28;28.80;77.40
20929;DHT22;21895;47.072;15.132;2022-08-14T13:07:58;29.00;78.20
20929;DHT22;21895;47.072;15.132;2022-08-14T13:10:32;29.10;78.50
20929;DHT22;21895;47.072;15.132;2022-08-14T13:13:19;29.20;77.20
20929;DHT22;21895;47.072;15.132;2022-08-14T13:15:48;29.00;78.00
20929;DHT22;21895;47.072;15.132;2022-08-14T13:18:24;29.10;76.30
20929;DHT22;21895;47.072;15.132;2022-08-14T13:20:56;29.00;76.70
20929;DHT22;21895;47.072;15.132;2022-08-14T13:23:32;29.00;78.30
20929;DHT22;21895;47.072;15.132;2022-08-14T13:26:03;29.10;78.10
20929;DHT22;21895;47.072;15.132;2022-08-14T13:28:32;29.00;78.50
20929;DHT22;21895;47.072;15.132;2022-08-14T13:31:29;29.00;77.60
20929;DHT22;21895;47.072;15.132;2022-08-14T13:34:00;29.10;78.30
20929;DHT22;21895;47.072;15.132;2022-08-14T13:36:30;29.20;76.70
20929;DHT22;21895;47.072;15.132;2022-08-14T13:39:25;29.10;77.10
20929;DHT22;21895;47.072;15.132;2022-08-14T13:41:54;29.20;77.60
20929;DHT22;21895;47.072;15.132;2022-08-14T13:44:26;29.20;78.20
20929;DHT22;21895;47.072;15.132;2022-08-14T13:46:53;29.20;77.80
20929;DHT22;21895;47.072;15.132;2022-08-14T13:49:21;29.20;74.20
20929;DHT22;21895;47.072;15.132;2022-08-14T13:51:51;29.20;74.60
20929;DHT22;21895;47.072;15.132;2022-08-14T13:54:27;29.10;77.10
20929;DHT22;21895;47.072;15.132;2022-08-14T13:56:59;28.90;77.10
20929;DHT22;21895;47.072;15.132;2022-08-14T13:59:28;28.60;77.30
20929;DHT22;21895;47.072;15.132;2022-08-14T14:02:05;28.40;77.10
20929;DHT22;21895;47.072;15.132;2022-08-14T14:04:38;28.20;77.40
20929;DHT22;21895;47.072;15.132;2022-08-14T14:07:08;28.10;77.20
20929;DHT22;21895;47.072;15.132;2022-08-14T14:09:45;28.00;79.40
20929;DHT22;21895;47.072;15.132;2022-08-14T14:12:19;28.00;77.30
20929;DHT22;21895;47.072;15.132;2022-08-14T14:15:17;28.00;78.90
20929;DHT22;21895;47.072;15.132;2022-08-14T14:17:54;28.20;79.00
20929;DHT22;21895;47.072;15.132;2022-08-14T14:20:23;28.20;79.20
20929;DHT22;21895;47.072;15.132;2022-08-14T14:23:02;28.10;78.90
20929;DHT22;21895;47.072;15.132;2022-08-14T14:25:42;28.00;80.40
20929;DHT22;21895;47.072;15.132;2022-08-14T14:28:19;28.00;81.60
20929;DHT22;21895;47.072;15.132;2022-08-14T14:30:52;28.00;81.00
20929;DHT22;21895;47.072;15.132;2022-08-14T14:33:24;28.00;81.10
20929;DHT22;21895;47.072;15.132;2022-08-14T14:36:17;27.90;80.40
20929;DHT22;21895;47.072;15.132;2022-08-14T14:38:55;27.90;80.80
20929;DHT22;21895;47.072;15.132;2022-08-14T14:41:29;27.70;81.70
20929;DHT22;21895;47.072;15.132;2022-08-14T14:44:06;27.80;82.40
20929;DHT22;21895;47.072;15.132;2022-08-14T14:46:36;27.90;84.20
20929;DHT22;21895;47.072;15.132;2022-08-14T14:49:08;27.80;83.90
20929;DHT22;21895;47.072;15.132;2022-08-14T14:51:42;27.80;82.50
20929;DHT22;21895;47.072;15.132;2022-08-14T14:54:13;27.70;83.60
20929;DHT22;21895;47.072;15.132;2022-08-14T14:56:43;27.70;84.40
20929;DHT22;21895;47.072;15.132;2022-08-14T14:59:18;27.80;85.10
20929;DHT22;21895;47.072;15.132;2022-08-14T15:01:48;27.90;84.80
20929;DHT22;21895;47.072;15.132;2022-08-14T15:04:16;27.90;83.10
20929;DHT22;21895;47.072;15.132;2022-08-14T15:06:47;28.00;84.60
20929;DHT22;21895;47.072;15.132;2022-08-14T15:09:14;28.00;85.60
20929;DHT22;21895;47.072;15.132;2022-08-14T15:11:44;28.00;85.10
20929;DHT22;21895;47.072;15.132;2022-08-14T15:14:13;28.10;84.30
20929;DHT22;21895;47.072;15.132;2022-08-14T15:17:23;28.00;83.40
20929;DHT22;21895;47.072;15.132;2022-08-14T15:19:54;28.00;83.00
20929;DHT22;21895;47.072;15.132;2022-08-14T15:22:22;28.00;81.40
20929;DHT22;21895;47.072;15.132;2022-08-14T15:24:51;27.90;82.50
20929;DHT22;21895;47.072;15.132;2022-08-14T15:27:17;28.00;83.70
20929;DHT22;21895;47.072;15.132;2022-08-14T15:29:52;28.00;84.00
20929;DHT22;21895;47.072;15.132;2022-08-14T15:32:19;27.90;83.40
20929;DHT22;21895;47.072;15.132;2022-08-14T15:34:49;27.90;82.80
20929;DHT22;21895;47.072;15.132;2022-08-14T15:37:18;27.90;84.10
20929;DHT22;21895;47.072;15.132;2022-08-14T15:39:49;28.00;81.60
20929;DHT22;21895;47.072;15.132;2022-08-14T15:42:19;28.00;80.00
20929;DHT22;21895;47.072;15.132;2022-08-14T15:44:49;27.80;80.60
20929;DHT22;21895;47.072;15.132;2022-08-14T15:47:26;27.90;80.10
20929;DHT22;21895;47.072;15.132;2022-08-14T15:50:00;27.90;79.50
20929;DHT22;21895;47.072;15.132;2022-08-14T15:52:30;27.90;81.20
20929;DHT22;21895;47.072;15.132;2022-08-14T15:55:13;27.80;81.30
20929;DHT22;21895;47.072;15.132;2022-08-14T15:57:44;27.70;84.80
20929;DHT22;21895;47.072;15.132;2022-08-14T16:00:33;27.70;84.10
20929;DHT22;21895;47.072;15.132;2022-08-14T16:03:21;27.60;85.20
20929;DHT22;21895;47.072;15.132;2022-08-14T16:06:10;27.60;85.80
20929;DHT22;21895;47.072;15.132;2022-08-14T16:08:48;27.50;86.60
20929;DHT22;21895;47.072;15.132;2022-08-14T16:11:26;27.40;87.60
20929;DHT22;21895;47.072;15.132;2022-08-14T16:13:59;27.30;87.20
20929;DHT22;21895;47.072;15.132;2022-08-14T16:16:27;27.30;88.70
20929;DHT22;21895;47.072;15.132;2022-08-14T16:19:18;27.20;89.10
20929;DHT22;21895;47.072;15.132;2022-08-14T16:21:46;27.10;90.00
20929;DHT22;21895;47.072;15.132;2022-08-14T16:25:23;27.10;90.10
20929;DHT22;21895;47.072;15.132;2022-08-14T16:28:01;27.10;91.40
20929;DHT22;21895;47.072;15.132;2022-08-14T16:30:33;27.10;91.30
20929;DHT22;21895;47.072;15.132;2022-08-14T16:33:02;27.00;89.30
20929;DHT22;21895;47.072;15.132;2022-08-14T16:35:33;27.00;89.90